Time;durP1;ratioP1;P1;durP2;ratioP2;P2;SDS_P1;SDS_P2;PMS_P1;PMS_P2;Temp;Humidity;BMP_temperature;BMP_pressure;BME280_temperature;BME280_humidity;BME280_pressure;Samples;Min_cycle;Max_cycle;Signal;HPM_P1;HPM_P2
2021/05/25 00:06:47;;;;;;;3.00;2.20;;;;;;;13.63;60.88;99248.53;531394;1098;116186;-60
2021/05/25 00:16:53;;;;;;;2.73;2.13;;;;;;;13.34;61.73;99241.19;532064;1098;116698;-60
2021/05/25 00:26:58;;;;;;;2.30;1.93;;;;;;;13.13;62.69;99214.75;532157;1098;166894;-61
2021/05/25 00:37:04;;;;;;;3.23;2.03;;;;;;;12.99;63.64;99192.16;528344;1098;117069;-59
2021/05/25 00:47:09;;;;;;;5.13;2.80;;;;;;;12.73;65.08;99163.45;528034;1098;116059;-60
2021/05/25 00:57:15;;;;;;;5.00;3.43;;;;;;;12.47;66.53;99140.04;532177;1098;116221;-61
2021/05/25 01:07:20;;;;;;;4.67;3.77;;;;;;;12.32;67.14;99116.61;531467;1098;116478;-61
2021/05/25 01:17:26;;;;;;;4.23;3.83;;;;;;;12.22;67.81;99112.17;531834;1098;115846;-60
2021/05/25 01:27:31;;;;;;;4.20;3.80;;;;;;;12.06;68.43;99105.48;513742;1098;116664;-59
2021/05/25 01:37:36;;;;;;;6.63;4.40;;;;;;;11.97;68.71;99093.86;514852;1093;116473;-60
2021/05/25 01:47:41;;;;;;;5.27;3.63;;;;;;;11.88;69.51;99076.98;514304;1098;115864;-59
2021/05/25 01:57:46;;;;;;;6.43;4.27;;;;;;;11.81;69.81;99052.13;519647;1098;116596;-61
2021/05/25 02:07:53;;;;;;;7.40;4.43;;;;;;;11.78;70.26;99058.45;532108;1098;115836;-62
2021/05/25 02:18:03;;;;;;;5.53;3.97;;;;;;;11.77;70.63;99040.16;532140;1098;116983;-61
2021/05/25 02:28:09;;;;;;;6.10;4.20;;;;;;;11.77;70.64;99022.59;531436;1098;117261;-61
2021/05/25 02:38:15;;;;;;;3.77;3.47;;;;;;;11.80;71.14;99028.56;532203;1098;115595;-61
2021/05/25 02:48:21;;;;;;;4.53;4.10;;;;;;;11.86;71.23;99012.31;532071;1097;115628;-60
2021/05/25 02:58:25;;;;;;;4.28;3.85;;;;;;;11.90;71.34;98985.65;532169;1098;116065;-61
2021/05/25 03:08:30;;;;;;;4.90;3.43;;;;;;;11.98;71.46;98985.03;532152;1098;116324;-60
2021/05/25 03:18:35;;;;;;;5.20;4.17;;;;;;;12.08;71.60;98990.41;531418;1098;116396;-59
2021/05/25 03:28:41;;;;;;;2.67;2.47;;;;;;;12.15;70.73;98990.76;532126;1098;116322;-60
2021/05/25 03:38:46;;;;;;;3.73;2.43;;;;;;;12.24;70.39;99010.26;532145;1098;116149;-60
2021/05/25 03:48:50;;;;;;;2.93;2.10;;;;;;;12.30;70.44;99023.76;531472;1098;117549;-60
2021/05/25 03:58:55;;;;;;;3.53;2.55;;;;;;;12.37;70.50;99028.52;532164;1098;115942;-61
2021/05/25 04:09:00;;;;;;;3.17;2.10;;;;;;;12.45;70.82;99036.64;532192;1098;115969;-60
2021/05/25 04:19:05;;;;;;;3.13;2.33;;;;;;;12.51;70.86;99045.84;531389;1098;116564;-60
2021/05/25 04:29:10;;;;;;;3.78;2.93;;;;;;;12.40;71.08;99047.54;532099;1098;115980;-60
2021/05/25 04:39:15;;;;;;;5.10;3.43;;;;;;;12.40;71.27;99038.79;532105;1097;117115;-61
2021/05/25 04:49:20;;;;;;;4.00;3.20;;;;;;;12.39;71.57;99027.44;531458;1097;116482;-62
2021/05/25 04:59:25;;;;;;;3.23;2.93;;;;;;;12.35;71.88;99026.02;532065;1098;116548;-61
2021/05/25 05:09:31;;;;;;;3.30;2.57;;;;;;;12.23;71.88;99021.72;524805;1098;117310;-60
2021/05/25 05:19:35;;;;;;;5.03;3.07;;;;;;;12.18;72.29;99022.94;532066;1098;116421;-61
2021/05/25 05:29:40;;;;;;;2.57;2.37;;;;;;;12.28;72.38;99019.57;532120;1098;115745;-61
2021/05/25 05:39:45;;;;;;;4.08;3.18;;;;;;;12.41;72.81;99024.66;530990;1098;116511;-60
2021/05/25 05:49:50;;;;;;;3.88;3.58;;;;;;;12.65;72.88;99027.11;516267;1098;117035;-60
2021/05/25 05:59:55;;;;;;;4.00;3.70;;;;;;;12.77;72.45;99016.53;529408;1098;115781;-60
2021/05/25 06:10:02;;;;;;;4.00;2.90;;;;;;;13.10;72.26;99027.86;531361;1098;172142;-65
2021/05/25 06:20:09;;;;;;;3.17;2.63;;;;;;;13.39;71.80;99025.40;532085;1098;116481;-64
2021/05/25 06:30:16;;;;;;;4.10;2.80;;;;;;;13.77;70.81;99028.39;532109;1098;116937;-60
2021/05/25 06:40:21;;;;;;;4.00;2.97;;;;;;;13.73;70.72;99030.45;527777;1098;116566;-58
2021/05/25 06:50:26;;;;;;;4.47;2.90;;;;;;;13.74;70.59;99026.02;532045;1098;116375;-60
2021/05/25 07:00:31;;;;;;;3.40;2.30;;;;;;;13.70;70.31;99014.90;531384;1098;116504;-61
2021/05/25 07:10:36;;;;;;;6.13;4.90;;;;;;;14.03;70.29;99005.98;532072;1098;117062;-62
2021/05/25 07:20:42;;;;;;;6.40;4.27;;;;;;;17.29;67.92;98995.80;521374;1098;116498;-62
2021/05/25 07:30:48;;;;;;;4.20;2.35;;;;;;;28.03;59.60;98968.77;531360;1098;116189;-63
2021/05/25 07:40:53;;;;;;;5.77;1.90;;;;;;;30.34;45.42;98982.33;532058;1098;116968;-61
2021/05/25 07:50:58;;;;;;;6.17;1.63;;;;;;;26.06;44.44;98992.25;532096;1098;117111;-61
2021/05/25 08:01:04;;;;;;;2.57;1.70;;;;;;;24.81;44.50;98992.09;531425;1098;116599;-62
2021/05/25 08:11:12;;;;;;;4.47;1.23;;;;;;;24.66;44.12;98993.09;532056;1098;117365;-62
2021/05/25 08:21:18;;;;;;;2.83;1.57;;;;;;;24.37;43.79;98995.13;528703;1098;116664;-61
2021/05/25 08:31:23;;;;;;;1.97;1.37;;;;;;;24.48;43.00;99007.95;531322;1097;115891;-61
2021/05/25 08:41:28;;;;;;;2.83;1.50;;;;;;;23.95;43.20;99013.93;529118;1098;116783;-60
2021/05/25 08:51:33;;;;;;;3.30;2.73;;;;;;;23.29;43.22;99026.77;531395;1098;117320;-60
2021/05/25 09:01:38;;;;;;;4.57;2.00;;;;;;;23.34;42.20;99032.39;532097;1098;116771;-60
2021/05/25 09:11:59;;;;;;;2.13;1.30;;;;;;;23.57;42.70;99041.17;532099;1098;115589;-66
2021/05/25 09:22:25;;;;;;;4.60;1.60;;;;;;;23.18;42.18;99049.54;531508;1098;117436;-60
2021/05/25 09:32:30;;;;;;;2.73;1.40;;;;;;;21.71;43.19;99064.80;532092;1098;117106;-62
2021/05/25 09:42:35;;;;;;;4.13;1.30;;;;;;;20.49;45.03;99072.56;531404;1098;116900;-67
2021/05/25 09:53:01;;;;;;;2.55;1.75;;;;;;;19.52;46.10;99069.91;529664;1098;116563;-59
2021/05/25 10:03:14;;;;;;;2.43;1.63;;;;;;;19.62;47.47;99071.56;523564;1098;116123;-59
2021/05/25 10:13:19;;;;;;;3.63;1.63;;;;;;;20.23;47.01;99063.89;531345;1098;116314;-59
2021/05/25 10:23:26;;;;;;;3.07;1.80;;;;;;;19.19;47.51;99101.88;531157;1098;116144;-59
2021/05/25 10:33:35;;;;;;;5.53;1.57;;;;;;;17.29;49.33;99116.03;531411;1098;117740;-59
2021/05/25 10:43:48;;;;;;;2.68;1.88;;;;;;;16.42;51.19;99136.85;532123;1098;116164;-59
2021/05/25 10:54:23;;;;;;;2.10;1.53;;;;;;;16.09;53.12;99124.86;532230;1097;115696;-62
2021/05/25 11:04:37;;;;;;;3.13;1.90;;;;;;;16.07;53.92;99126.83;532257;1098;116547;-62
2021/05/25 11:15:14;;;;;;;3.23;1.80;;;;;;;16.24;54.02;99148.21;532133;1098;117229;-58
2021/05/25 11:25:40;;;;;;;5.03;2.00;;;;;;;15.69;55.01;99192.93;531358;1098;116497;-58
2021/05/25 11:35:47;;;;;;;4.73;1.90;;;;;;;15.12;56.93;99212.14;532122;1098;116939;-58
2021/05/25 11:45:52;;;;;;;1.73;1.00;;;;;;;15.30;56.20;99214.13;531399;1098;116800;-58
2021/05/25 11:55:57;;;;;;;2.50;0.60;;;;;;;15.68;54.27;99219.52;532124;1098;116698;-60
2021/05/25 12:06:02;;;;;;;1.80;1.13;;;;;;;15.90;52.54;99236.11;532141;1098;117134;-60
2021/05/25 12:16:13;;;;;;;1.37;0.73;;;;;;;15.71;51.35;99229.85;531441;1098;117836;-61
2021/05/25 12:26:19;;;;;;;0.93;0.67;;;;;;;15.35;51.15;99237.48;532113;1098;117460;-60
2021/05/25 12:36:30;;;;;;;2.65;1.00;;;;;;;14.73;51.37;99253.50;532132;1098;117195;-61
2021/05/25 12:46:36;;;;;;;2.25;0.70;;;;;;;14.85;51.82;99260.36;532044;1098;116241;-58
2021/05/25 12:56:56;;;;;;;4.20;1.00;;;;;;;14.93;51.64;99264.97;532195;1098;116736;-60
2021/05/25 13:07:05;;;;;;;4.63;1.10;;;;;;;15.48;51.21;99253.95;531439;1098;116634;-61
2021/05/25 13:17:11;;;;;;;;;;;;;;;15.24;50.82;99270.20;532103;1098;117203;-61
2021/05/25 13:27:23;;;;;;;1.37;0.97;;;;;;;15.08;51.08;99263.63;532351;1098;102722;-62
2021/05/25 13:37:29;;;;;;;2.30;1.40;;;;;;;15.13;50.81;99234.96;532087;1097;117361;-61
2021/05/25 13:47:34;;;;;;;4.87;2.00;;;;;;;15.18;51.17;99255.71;532077;1098;115940;-57
2021/05/25 13:57:43;;;;;;;2.70;1.43;;;;;;;14.89;51.48;99279.44;531474;1098;116484;-57
2021/05/25 14:07:52;;;;;;;4.20;1.10;;;;;;;14.42;52.04;99278.91;522765;1098;115904;-57
2021/05/25 14:17:57;;;;;;;6.60;1.30;;;;;;;14.41;52.76;99308.94;532143;1098;116730;-63
2021/05/25 14:28:03;;;;;;;3.70;1.60;;;;;;;14.29;53.08;99316.11;531362;1097;117240;-62
2021/05/25 14:38:13;;;;;;;5.05;1.20;;;;;;;14.27;52.96;99306.63;531664;1098;116366;-63
2021/05/25 14:48:18;;;;;;;4.67;1.50;;;;;;;14.58;52.65;99325.99;517758;1098;117270;-60
2021/05/25 14:58:23;;;;;;;4.67;1.50;;;;;;;15.03;52.06;99323.18;531208;1098;116563;-62
2021/05/25 15:08:28;;;;;;;6.27;1.50;;;;;;;15.05;51.53;99323.88;532207;1098;117245;-63
2021/05/25 15:18:33;;;;;;;3.77;1.57;;;;;;;15.18;51.04;99320.98;531355;1098;117899;-61
2021/05/25 15:28:38;;;;;;;2.53;1.57;;;;;;;14.93;51.74;99320.48;532089;1098;115794;-65
2021/05/25 15:38:44;;;;;;;5.30;1.60;;;;;;;14.69;52.24;99327.73;532213;1098;116253;-64
2021/05/25 15:48:49;;;;;;;6.40;1.93;;;;;;;14.70;52.55;99316.20;531358;1098;115808;-62
2021/05/25 15:58:54;;;;;;;1.33;1.20;;;;;;;14.63;52.87;99312.39;532035;1098;116113;-62
2021/05/25 16:08:59;;;;;;;3.83;1.77;;;;;;;14.47;52.84;99296.19;532003;1098;116514;-65
2021/05/25 16:19:05;;;;;;;6.70;2.90;;;;;;;14.29;54.14;99300.27;512756;1098;10001881;-64
2021/05/25 16:29:10;;;;;;;3.03;1.93;;;;;;;14.21;54.43;99304.52;532042;1098;117895;-65
2021/05/25 16:39:15;;;;;;;5.97;2.60;;;;;;;14.09;54.71;99290.53;527754;1098;115974;-65
2021/05/25 16:49:20;;;;;;;2.33;1.90;;;;;;;14.20;54.93;99268.50;531034;1098;116940;-64
2021/05/25 16:59:26;;;;;;;2.73;2.23;;;;;;;14.18;54.65;99275.71;531972;1098;116091;-64
2021/05/25 17:19:54;;;;;;;5.70;3.70;;;;;;;14.22;55.17;99293.81;530111;1098;116865;-64
2021/05/25 17:29:59;;;;;;;5.57;3.50;;;;;;;13.94;55.78;99311.12;514190;1094;116048;-64
2021/05/25 17:40:07;;;;;;;5.05;2.93;;;;;;;13.64;56.71;99325.89;525430;1098;116397;-64
2021/05/25 17:50:14;;;;;;;3.80;2.63;;;;;;;13.36;57.24;99318.37;532117;1098;116754;-64
2021/05/25 18:00:19;;;;;;;4.40;2.20;;;;;;;13.09;57.32;99316.13;532065;1098;115778;-63
2021/05/25 18:10:24;;;;;;;3.10;2.07;;;;;;;12.87;57.52;99294.09;522281;1098;10001052;-64
2021/05/25 18:20:51;;;;;;;5.87;2.67;;;;;;;12.71;57.79;99313.75;531970;1098;117822;-64
2021/05/25 18:51:43;;;;;;;7.53;3.17;;;;;;;11.92;58.78;99359.09;529395;1098;116425;-63
2021/05/25 19:01:51;;;;;;;5.80;2.50;;;;;;;11.45;59.43;99340.58;532018;1098;116908;-64
2021/05/25 19:11:58;;;;;;;4.43;2.57;;;;;;;11.12;59.92;99334.14;532066;1098;116358;-64
2021/05/25 19:22:14;;;;;;;3.57;2.63;;;;;;;10.92;61.00;99355.61;521144;1098;116115;-64
2021/05/25 19:32:20;;;;;;;6.80;2.73;;;;;;;10.78;61.05;99340.80;529210;1098;116227;-66
2021/05/25 19:42:25;;;;;;;5.30;3.43;;;;;;;10.57;61.63;99363.27;532041;1097;116206;-64
2021/05/25 19:52:30;;;;;;;6.33;2.37;;;;;;;10.31;62.03;99376.34;519469;1098;116574;-59
2021/05/25 20:02:35;;;;;;;7.47;3.77;;;;;;;10.05;62.65;99379.73;530736;1098;116565;-57
2021/05/25 20:12:45;;;;;;;5.03;4.43;;;;;;;9.78;63.19;99388.45;517022;1098;116393;-58
2021/05/25 20:22:50;;;;;;;6.20;4.10;;;;;;;9.53;63.79;99415.38;513965;1093;115762;-59
2021/05/25 20:32:55;;;;;;;8.20;3.90;;;;;;;9.27;64.53;99412.59;516549;1097;173689;-59
2021/05/25 20:43:00;;;;;;;7.70;4.73;;;;;;;9.02;65.08;99428.95;513764;1092;116379;-59
2021/05/25 20:53:07;;;;;;;5.80;3.80;;;;;;;8.83;65.72;99438.76;514893;1098;117065;-59
2021/05/25 21:03:12;;;;;;;6.80;3.67;;;;;;;8.74;66.30;99443.70;526759;1098;115849;-59
2021/05/25 21:13:17;;;;;;;5.53;2.57;;;;;;;8.76;66.37;99431.36;531055;1098;117158;-60
2021/05/25 21:23:22;;;;;;;4.73;3.17;;;;;;;8.88;65.94;99430.63;520525;1098;115772;-58
2021/05/25 21:33:27;;;;;;;3.77;2.83;;;;;;;9.02;66.13;99435.05;515409;1093;116905;-58
2021/05/25 21:43:32;;;;;;;5.50;2.80;;;;;;;9.09;66.27;99433.73;515330;1098;116119;-58
2021/05/25 21:53:38;;;;;;;3.30;1.95;;;;;;;9.13;65.86;99429.15;515498;1093;116412;-59
2021/05/25 22:03:43;;;;;;;1.95;1.70;;;;;;;9.13;65.77;99441.42;514670;1093;116373;-58
2021/05/25 22:13:48;;;;;;;4.73;1.70;;;;;;;8.99;65.86;99439.63;514965;1098;116099;-58
2021/05/25 22:23:53;;;;;;;2.37;2.00;;;;;;;8.79;65.79;99441.64;514936;1093;116360;-58
2021/05/25 22:33:58;;;;;;;2.87;1.60;;;;;;;8.64;66.16;99431.16;530593;1098;115898;-59
2021/05/25 22:44:03;;;;;;;2.87;2.10;;;;;;;8.40;66.46;99439.47;532052;1098;116159;-59
2021/05/25 22:54:08;;;;;;;4.43;1.87;;;;;;;8.17;66.92;99430.30;532173;1097;116003;-60
2021/05/25 23:04:13;;;;;;;3.77;2.07;;;;;;;7.88;67.17;99424.95;531447;1097;116550;-58
2021/05/25 23:14:18;;;;;;;2.83;1.40;;;;;;;7.69;67.80;99431.19;532164;1098;115924;-58
2021/05/25 23:24:23;;;;;;;3.57;1.63;;;;;;;7.51;68.10;99446.09;532134;1098;116577;-58
2021/05/25 23:34:28;;;;;;;3.27;2.27;;;;;;;7.31;68.31;99443.69;532123;1098;115720;-58
2021/05/25 23:44:33;;;;;;;2.27;1.60;;;;;;;7.11;68.43;99441.20;532105;1098;116765;-58
2021/05/25 23:54:38;;;;;;;2.83;1.70;;;;;;;6.87;69.32;99440.73;531324;1098;115766;-59
